X  Lukk Metar værinformasjon om luftfart     KOMA Eppley Airfield
Temperatur
73°F Temperatur
36°F Duggpunkt
25% Luftfuktighet



Vind
9 MPT
14 KM/T
4 M/S
8 KNP



310°
NV
Nåværende forhold

Delvis overskyet Delvis overskyet
Trykk 1020.02 (hPa) - 30.12 (inHg)
Sikt 10 (mil) - 16.1 (km)
Flyplass
Flyplass-kode KOMA

Plassering: Eppley Airfield
Avstand: 20 (mi)

Metar:
KOMA 261952Z 31008KT 10SM FEW160 SCT250 23/02 A3012 RMK AO2 SLP197 T02330022

Tid: 09-26-2022 14:52 CDT